Time;durP1;ratioP1;P1;durP2;ratioP2;P2;SDS_P1;SDS_P2;PMS_P1;PMS_P2;Temp;Humidity;BMP_temperature;BMP_pressure;BME280_temperature;BME280_humidity;BME280_pressure;Samples;Min_cycle;Max_cycle;Signal;HPM_P1;HPM_P2
2021/05/17 00:00:58;;;;;;;8.60;5.00;;;9.90;93.50;;;;;;5138443;27;20797;-67
2021/05/17 00:03:25;;;;;;;6.80;4.77;;;9.90;93.40;;;;;;5138638;27;20050;-66
2021/05/17 00:05:52;;;;;;;8.33;4.97;;;9.90;93.40;;;;;;5138738;27;20824;-67
2021/05/17 00:08:18;;;;;;;7.50;4.57;;;9.90;93.40;;;;;;5138107;27;20289;-66
2021/05/17 00:10:45;;;;;;;6.73;4.50;;;9.90;93.50;;;;;;5138799;27;20047;-66
2021/05/17 00:13:11;;;;;;;8.80;5.13;;;9.80;93.40;;;;;;5139103;27;20047;-66
2021/05/17 00:15:38;;;;;;;8.20;4.97;;;9.80;93.40;;;;;;5138104;27;20388;-66
2021/05/17 00:18:06;;;;;;;5.07;4.17;;;9.80;93.40;;;;;;5138999;27;20296;-66
2021/05/17 00:20:32;;;;;;;10.17;5.50;;;9.80;93.40;;;;;;5138631;27;20058;-66
2021/05/17 00:22:58;;;;;;;11.13;5.20;;;9.80;93.40;;;;;;5138497;27;20297;-66
2021/05/17 00:25:24;;;;;;;5.93;4.30;;;9.80;93.30;;;;;;5138641;27;20303;-66
2021/05/17 00:27:56;;;;;;;5.30;4.17;;;9.70;93.30;;;;;;5138768;27;20074;-66
2021/05/17 00:30:25;;;;;;;7.43;4.40;;;9.70;93.30;;;;;;5138293;27;20047;-66
2021/05/17 00:32:51;;;;;;;5.60;4.27;;;9.70;93.30;;;;;;5138953;27;20387;-67
2021/05/17 00:35:18;;;;;;;5.73;3.77;;;9.70;93.30;;;;;;5138581;27;20054;-66
2021/05/17 00:37:44;;;;;;;6.63;4.17;;;9.70;93.30;;;;;;5138125;27;20091;-66
2021/05/17 00:40:12;;;;;;;5.63;4.27;;;9.70;93.30;;;;;;5138874;27;20335;-66
2021/05/17 00:42:38;;;;;;;5.73;4.13;;;9.80;93.30;;;;;;5138703;27;20323;-66
2021/05/17 00:45:08;;;;;;;6.77;4.20;;;9.70;93.30;;;;;;5135021;27;20296;-66
2021/05/17 00:47:39;;;;;;;7.93;4.33;;;9.80;93.30;;;;;;5135810;27;20593;-66
2021/05/17 00:50:06;;;;;;;7.23;4.43;;;9.80;93.20;;;;;;5135155;27;20051;-66
2021/05/17 00:52:32;;;;;;;4.10;3.70;;;9.80;93.20;;;;;;5134660;27;20638;-66
2021/05/17 00:54:58;;;;;;;7.07;3.57;;;9.80;93.10;;;;;;5135287;27;20296;-67
2021/05/17 00:57:24;;;;;;;5.43;4.13;;;9.80;93.00;;;;;;5134591;27;20441;-67
2021/05/17 00:59:50;;;;;;;6.77;4.00;;;9.80;93.00;;;;;;5134907;27;20431;-66
2021/05/17 01:02:16;;;;;;;5.97;4.30;;;9.80;93.00;;;;;;5135115;27;20387;-66
2021/05/17 01:04:42;;;;;;;5.57;3.73;;;9.90;93.00;;;;;;5134071;27;20387;-66
2021/05/17 01:07:08;;;;;;;5.83;3.73;;;9.90;93.00;;;;;;5135081;27;20062;-66
2021/05/17 01:09:35;;;;;;;8.10;4.03;;;9.90;92.90;;;;;;5134692;27;20051;-66
2021/05/17 01:12:01;;;;;;;7.87;4.33;;;9.90;92.80;;;;;;5134490;27;20339;-66
2021/05/17 01:14:27;;;;;;;6.73;4.50;;;9.90;92.70;;;;;;5134795;27;20289;-66
2021/05/17 01:16:54;;;;;;;8.43;4.33;;;10.00;92.70;;;;;;5134367;27;20686;-66
2021/05/17 01:19:38;;;;;;;8.90;4.33;;;10.00;92.70;;;;;;5134246;27;20292;-66
2021/05/17 01:22:21;;;;;;;7.30;3.53;;;10.00;92.60;;;;;;5134707;27;20308;-66
2021/05/17 01:24:47;;;;;;;5.03;3.50;;;10.00;92.70;;;;;;5134623;27;20428;-67
2021/05/17 01:27:13;;;;;;;6.90;3.57;;;9.90;92.70;;;;;;5134201;27;20297;-66
2021/05/17 01:29:40;;;;;;;6.33;3.63;;;9.90;92.80;;;;;;5134857;27;20293;-66
2021/05/17 01:32:08;;;;;;;6.77;2.97;;;9.90;92.90;;;;;;5134842;27;20043;-66
2021/05/17 01:34:34;;;;;;;4.73;2.23;;;9.90;93.00;;;;;;5134010;27;20303;-66
2021/05/17 01:37:01;;;;;;;3.43;2.20;;;9.90;92.90;;;;;;5134561;27;20297;-66
2021/05/17 01:39:27;;;;;;;4.00;2.40;;;9.90;92.90;;;;;;5134274;27;20289;-66
2021/05/17 01:41:54;;;;;;;6.57;3.20;;;9.80;92.90;;;;;;5133910;27;20319;-66
2021/05/17 01:44:24;;;;;;;3.53;2.40;;;9.70;93.00;;;;;;5134060;27;20479;-66
2021/05/17 01:46:51;;;;;;;5.97;2.67;;;9.70;93.20;;;;;;5133621;27;20400;-66
2021/05/17 01:49:18;;;;;;;5.57;3.17;;;9.60;93.30;;;;;;5133914;27;20320;-66
2021/05/17 01:51:48;;;;;;;5.03;2.77;;;9.60;93.40;;;;;;5134034;27;20343;-66
2021/05/17 01:54:15;;;;;;;3.77;2.67;;;9.60;93.40;;;;;;5133756;27;20293;-66
2021/05/17 01:56:42;;;;;;;5.20;2.77;;;9.60;93.50;;;;;;5133775;27;20297;-66
2021/05/17 01:59:08;;;;;;;5.07;3.03;;;9.60;93.70;;;;;;5134217;27;20301;-66
2021/05/17 02:01:34;;;;;;;6.17;2.80;;;9.60;93.80;;;;;;5133122;27;20665;-66
2021/05/17 02:04:00;;;;;;;5.53;3.00;;;9.60;93.80;;;;;;5133517;27;20391;-66
2021/05/17 02:06:26;;;;;;;4.60;3.03;;;9.60;93.80;;;;;;5133724;27;20772;-66
2021/05/17 02:08:52;;;;;;;7.77;2.40;;;9.60;93.80;;;;;;5133156;27;20298;-66
2021/05/17 02:11:24;;;;;;;3.70;2.50;;;9.70;93.80;;;;;;5133531;27;20440;-66
2021/05/17 02:13:50;;;;;;;5.22;2.38;;;9.60;93.70;;;;;;5133541;27;20347;-66
2021/05/17 02:16:17;;;;;;;3.10;2.03;;;9.60;93.60;;;;;;5133102;27;20045;-66
2021/05/17 02:18:47;;;;;;;3.27;2.20;;;9.60;93.60;;;;;;5134274;27;20304;-66
2021/05/17 02:21:15;;;;;;;3.07;2.50;;;9.60;93.70;;;;;;5133153;27;20317;-66
2021/05/17 02:23:41;;;;;;;3.27;2.50;;;9.60;93.60;;;;;;5132945;27;20297;-66
2021/05/17 02:26:07;;;;;;;2.97;2.67;;;9.50;93.70;;;;;;5133575;27;20292;-66
2021/05/17 02:28:36;;;;;;;6.57;2.73;;;9.50;93.70;;;;;;5133101;27;20099;-66
2021/05/17 02:31:03;;;;;;;8.10;2.87;;;9.50;93.70;;;;;;5132467;27;20143;-66
2021/05/17 02:33:30;;;;;;;5.93;2.70;;;9.50;93.70;;;;;;5133072;27;20799;-65
2021/05/17 02:35:55;;;;;;;4.53;2.67;;;9.40;93.70;;;;;;5132543;27;20071;-65
2021/05/17 02:38:21;;;;;;;3.87;3.43;;;9.50;93.70;;;;;;5133009;27;20081;-65
2021/05/17 02:40:49;;;;;;;6.17;4.13;;;9.40;93.70;;;;;;5132626;27;20062;-65
2021/05/17 02:43:16;;;;;;;9.63;4.37;;;9.40;93.70;;;;;;5132730;27;20434;-65
2021/05/17 02:45:41;;;;;;;6.53;4.43;;;9.40;93.70;;;;;;5132799;27;20303;-66
2021/05/17 02:48:09;;;;;;;7.07;5.20;;;9.40;93.70;;;;;;5132981;27;20057;-67
2021/05/17 02:50:41;;;;;;;7.77;5.63;;;9.30;93.70;;;;;;5132560;27;20425;-67
2021/05/17 02:53:29;;;;;;;7.00;5.83;;;9.30;93.80;;;;;;5133461;27;20297;-67
2021/05/17 02:55:57;;;;;;;11.63;7.57;;;9.30;93.90;;;;;;5132709;27;20305;-67
2021/05/17 02:58:24;;;;;;;11.87;7.17;;;9.30;93.90;;;;;;5132391;27;20303;-67
2021/05/17 03:01:00;;;;;;;8.43;7.03;;;9.30;93.90;;;;;;5132397;27;20815;-67
2021/05/17 03:03:26;;;;;;;15.00;8.37;;;9.30;94.00;;;;;;5132672;27;20378;-67
2021/05/17 03:06:01;;;;;;;12.03;8.83;;;9.30;94.00;;;;;;5131975;27;20301;-67
2021/05/17 03:08:32;;;;;;;16.37;9.70;;;9.30;94.10;;;;;;5132255;27;20039;-67
2021/05/17 03:10:59;;;;;;;13.50;9.67;;;9.30;94.10;;;;;;5132550;27;20367;-67
2021/05/17 03:13:28;;;;;;;16.83;10.83;;;9.30;94.20;;;;;;5132495;27;20296;-67
2021/05/17 03:15:54;;;;;;;15.00;10.00;;;9.30;94.20;;;;;;5132475;27;20304;-67
2021/05/17 03:18:23;;;;;;;14.80;9.77;;;9.30;94.20;;;;;;5132263;27;20342;-67
2021/05/17 03:20:49;;;;;;;13.90;9.97;;;9.40;94.30;;;;;;5132367;27;20312;-67
2021/05/17 03:23:16;;;;;;;15.87;10.93;;;9.40;94.30;;;;;;5132370;27;20051;-67
2021/05/17 03:25:44;;;;;;;16.60;10.40;;;9.40;94.30;;;;;;5132110;27;20301;-67
2021/05/17 03:28:10;;;;;;;14.17;10.37;;;9.50;94.40;;;;;;5132587;27;20690;-67
2021/05/17 03:30:36;;;;;;;17.17;10.93;;;9.50;94.40;;;;;;5132105;27;20317;-67
2021/05/17 03:33:02;;;;;;;14.93;10.60;;;9.50;94.40;;;;;;5132024;27;20096;-67
2021/05/17 03:35:28;;;;;;;17.43;11.43;;;9.50;94.40;;;;;;5132170;28;20304;-67
2021/05/17 03:37:53;;;;;;;14.87;10.50;;;9.50;94.40;;;;;;5132162;28;20043;-67
2021/05/17 03:40:19;;;;;;;13.83;10.53;;;9.50;94.50;;;;;;5131648;28;20054;-67
2021/05/17 03:42:46;;;;;;;16.97;11.73;;;9.50;94.50;;;;;;5132132;28;20051;-67
2021/05/17 03:45:13;;;;;;;14.20;11.13;;;9.50;94.60;;;;;;5132285;27;20062;-67
2021/05/17 03:47:39;;;;;;;16.53;11.57;;;9.50;94.60;;;;;;5132070;27;20304;-67
2021/05/17 03:50:07;;;;;;;17.47;12.10;;;9.50;94.70;;;;;;5132476;28;20296;-67
2021/05/17 03:52:32;;;;;;;14.93;11.73;;;9.50;94.70;;;;;;5131919;27;20538;-67
2021/05/17 03:54:59;;;;;;;18.27;12.23;;;9.50;94.80;;;;;;5131442;28;20325;-67
2021/05/17 03:57:25;;;;;;;18.90;12.40;;;9.50;94.80;;;;;;5132138;27;20135;-67
2021/05/17 03:59:50;;;;;;;15.93;11.87;;;9.50;94.80;;;;;;5131746;27;20312;-67
2021/05/17 04:02:20;;;;;;;17.50;12.53;;;9.60;94.90;;;;;;5131660;28;20075;-67
2021/05/17 04:05:09;;;;;;;21.00;13.57;;;9.60;94.90;;;;;;5131916;27;20051;-67
2021/05/17 04:15:39;;;;;;;17.03;12.20;;;9.60;95.00;;;;;;5131734;28;20831;-67
2021/05/17 04:18:04;;;;;;;17.13;12.13;;;9.60;95.00;;;;;;5132047;28;20292;-67
2021/05/17 04:20:30;;;;;;;18.20;12.43;;;9.60;95.00;;;;;;5133579;27;20059;-67
2021/05/17 04:22:56;;;;;;;18.73;13.10;;;9.60;95.00;;;;;;5135369;27;20054;-67
2021/05/17 04:25:23;;;;;;;17.60;13.27;;;9.60;95.00;;;;;;5135866;27;20074;-67
2021/05/17 04:27:49;;;;;;;18.77;13.40;;;9.60;95.00;;;;;;5135271;27;20479;-67
2021/05/17 04:30:15;;;;;;;18.83;12.40;;;9.70;95.00;;;;;;5135048;27;20345;-67
2021/05/17 04:32:41;;;;;;;18.07;13.07;;;9.70;95.00;;;;;;5135329;27;20125;-67
2021/05/17 04:35:07;;;;;;;19.17;13.17;;;9.60;95.00;;;;;;5135610;27;20304;-67
2021/05/17 04:37:32;;;;;;;17.47;12.57;;;9.60;95.00;;;;;;5135147;27;20471;-67
2021/05/17 04:39:58;;;;;;;19.07;14.00;;;9.60;95.00;;;;;;5134888;27;20407;-67
2021/05/17 04:42:23;;;;;;;20.67;14.23;;;9.60;95.00;;;;;;5135475;27;20054;-67
2021/05/17 04:44:49;;;;;;;18.97;14.70;;;9.60;95.10;;;;;;5134873;27;20483;-66
2021/05/17 04:47:15;;;;;;;18.50;14.17;;;9.60;95.10;;;;;;5134708;27;20050;-67
2021/05/17 04:49:40;;;;;;;19.87;14.73;;;9.60;95.10;;;;;;5134211;27;20050;-67
2021/05/17 04:52:06;;;;;;;19.60;15.80;;;9.60;95.10;;;;;;5134976;27;20066;-67
2021/05/17 04:54:32;;;;;;;26.03;16.30;;;9.60;95.10;;;;;;5134574;27;20413;-67
2021/05/17 04:56:58;;;;;;;21.93;14.90;;;9.60;95.10;;;;;;5134301;27;20555;-67
2021/05/17 04:59:23;;;;;;;21.53;15.00;;;9.70;95.20;;;;;;5134502;27;20105;-67
2021/05/17 05:01:49;;;;;;;22.17;15.23;;;9.60;95.20;;;;;;5134128;27;20039;-67
2021/05/17 05:04:15;;;;;;;20.83;14.70;;;9.70;95.20;;;;;;5133714;27;20039;-68
2021/05/17 05:06:40;;;;;;;18.10;14.30;;;9.70;95.30;;;;;;5134592;27;20163;-67
2021/05/17 05:09:06;;;;;;;23.00;16.33;;;9.70;95.30;;;;;;5134624;27;20054;-67
2021/05/17 05:11:31;;;;;;;21.10;15.30;;;9.70;95.30;;;;;;5131098;27;20046;-67
2021/05/17 05:13:57;;;;;;;22.93;15.60;;;9.70;95.30;;;;;;5134388;27;20043;-65
2021/05/17 05:16:23;;;;;;;21.83;16.27;;;9.70;95.30;;;;;;5133978;27;20100;-67
2021/05/17 05:18:49;;;;;;;23.33;16.97;;;9.70;95.30;;;;;;5133640;27;20284;-66
2021/05/17 05:21:14;;;;;;;23.60;16.83;;;9.70;95.40;;;;;;5134031;27;20047;-66
2021/05/17 05:23:40;;;;;;;18.63;15.03;;;9.80;95.40;;;;;;5134032;27;20047;-66
2021/05/17 05:31:19;;;;;;;21.10;15.57;;;9.80;95.40;;;;;;5133457;27;20440;-66
2021/05/17 05:33:45;;;;;;;21.27;16.90;;;9.90;95.50;;;;;;5134014;27;20065;-66
2021/05/17 05:36:10;;;;;;;20.83;15.83;;;10.00;95.50;;;;;;5134117;27;20506;-66
2021/05/17 05:38:36;;;;;;;23.13;16.97;;;10.00;95.50;;;;;;5134309;27;20053;-66
2021/05/17 05:41:02;;;;;;;21.03;16.63;;;10.10;95.40;;;;;;5133730;27;20476;-66
2021/05/17 05:43:27;;;;;;;21.43;15.20;;;10.20;95.40;;;;;;5133968;27;20471;-66
2021/05/17 05:45:53;;;;;;;25.07;16.83;;;10.20;95.30;;;;;;5133614;27;20088;-66
2021/05/17 05:48:19;;;;;;;19.70;16.17;;;10.20;95.30;;;;;;5133658;27;20466;-65
2021/05/17 05:50:48;;;;;;;21.43;15.60;;;10.30;95.30;;;;;;5133393;27;20047;-66
2021/05/17 05:53:15;;;;;;;20.27;15.57;;;10.30;95.20;;;;;;5133403;27;20104;-66
2021/05/17 05:55:41;;;;;;;22.23;16.67;;;10.40;95.30;;;;;;5134064;27;20397;-66
2021/05/17 05:58:06;;;;;;;24.40;16.73;;;10.40;95.30;;;;;;5133817;27;20039;-66
2021/05/17 06:00:32;;;;;;;25.33;16.63;;;10.50;95.40;;;;;;5133029;27;20051;-66
2021/05/17 06:02:58;;;;;;;20.60;15.77;;;10.60;95.40;;;;;;5133897;27;20411;-66
2021/05/17 06:05:24;;;;;;;19.83;14.87;;;10.60;95.30;;;;;;5132988;27;20055;-66
2021/05/17 06:07:51;;;;;;;18.40;15.63;;;10.70;95.20;;;;;;5133142;27;20046;-66
2021/05/17 06:10:18;;;;;;;18.30;14.77;;;10.70;95.10;;;;;;5133834;27;20047;-66
2021/05/17 06:12:46;;;;;;;18.00;15.57;;;10.70;95.10;;;;;;5133072;27;20456;-66
2021/05/17 06:15:13;;;;;;;18.57;14.03;;;10.70;95.10;;;;;;5133132;27;20047;-66
2021/05/17 06:17:40;;;;;;;16.67;14.13;;;10.70;95.10;;;;;;5133591;27;20051;-66
2021/05/17 06:20:06;;;;;;;16.27;14.17;;;10.80;95.00;;;;;;5133658;27;20039;-66
2021/05/17 06:22:36;;;;;;;15.60;13.13;;;10.80;95.00;;;;;;5132639;27;20175;-66
2021/05/17 06:25:04;;;;;;;16.37;13.27;;;10.80;94.90;;;;;;5133270;27;20051;-66
2021/05/17 06:27:30;;;;;;;15.40;13.23;;;10.90;94.90;;;;;;5133046;27;20058;-66
2021/05/17 06:29:56;;;;;;;15.30;12.93;;;10.90;95.30;;;;;;5132693;27;20130;-66
2021/05/17 06:32:24;;;;;;;15.50;13.20;;;11.00;95.30;;;;;;5132704;27;20469;-66
2021/05/17 06:34:50;;;;;;;13.27;11.87;;;11.00;94.90;;;;;;5133274;27;20053;-66
2021/05/17 06:37:16;;;;;;;18.10;14.00;;;11.00;94.80;;;;;;5132703;27;20047;-66
2021/05/17 06:39:42;;;;;;;16.67;13.30;;;11.10;95.20;;;;;;5132664;27;20043;-66
2021/05/17 06:42:08;;;;;;;13.53;12.10;;;11.10;94.90;;;;;;5131921;27;20175;-66
2021/05/17 06:44:34;;;;;;;15.60;11.77;;;11.10;94.70;;;;;;5132981;27;20043;-66
2021/05/17 06:47:01;;;;;;;15.17;12.07;;;11.10;94.50;;;;;;5132380;27;20043;-66
2021/05/17 06:49:27;;;;;;;13.93;11.63;;;11.10;94.50;;;;;;5132465;27;20145;-66
2021/05/17 06:51:54;;;;;;;17.83;11.80;;;11.10;94.50;;;;;;5133005;27;20047;-66
2021/05/17 06:54:24;;;;;;;14.67;11.90;;;11.10;94.40;;;;;;5132870;27;20126;-66
2021/05/17 06:59:21;;;;;;;13.53;12.13;;;11.10;94.50;;;;;;5132735;27;20047;-66
2021/05/17 07:01:47;;;;;;;16.20;12.87;;;11.20;94.40;;;;;;5132202;27;20411;-66
2021/05/17 07:04:16;;;;;;;15.43;13.27;;;11.30;94.50;;;;;;5132176;27;20058;-66
2021/05/17 07:06:51;;;;;;;16.33;13.00;;;11.40;94.50;;;;;;5132804;27;20047;-66
2021/05/17 07:12:10;;;;;;;15.37;13.63;;;11.50;94.30;;;;;;5131816;27;20057;-66
2021/05/17 07:14:36;;;;;;;14.37;12.87;;;11.60;94.30;;;;;;5132468;27;20044;-66
2021/05/17 07:17:02;;;;;;;16.53;14.10;;;11.60;94.10;;;;;;5132351;27;20043;-66
2021/05/17 07:19:28;;;;;;;18.83;14.53;;;11.60;94.10;;;;;;5131798;27;20092;-66
2021/05/17 07:24:38;;;;;;;17.60;14.93;;;11.60;94.00;;;;;;5132037;27;20055;-66
2021/05/17 07:27:04;;;;;;;18.53;15.00;;;11.60;93.80;;;;;;5132649;27;20047;-66
2021/05/17 07:29:33;;;;;;;18.90;15.60;;;11.60;93.80;;;;;;5132296;27;20035;-66
2021/05/17 07:31:59;;;;;;;19.80;16.00;;;11.60;93.80;;;;;;5131743;27;20051;-66
2021/05/17 07:34:25;;;;;;;17.93;15.07;;;11.70;93.80;;;;;;5132545;28;20368;-66
2021/05/17 07:36:51;;;;;;;18.83;15.63;;;11.70;93.80;;;;;;5132157;28;20071;-66
2021/05/17 07:39:17;;;;;;;17.40;15.13;;;11.70;93.90;;;;;;5131541;28;20049;-66
2021/05/17 07:41:43;;;;;;;17.10;14.90;;;11.80;93.90;;;;;;5132287;27;20047;-66
2021/05/17 07:44:09;;;;;;;18.33;15.90;;;11.70;93.70;;;;;;5132541;28;20043;-66
2021/05/17 07:46:35;;;;;;;19.23;16.30;;;11.70;93.70;;;;;;5131637;28;20051;-66
2021/05/17 07:49:22;;;;;;;18.83;14.80;;;11.80;93.70;;;;;;5132197;28;20131;-66
2021/05/17 07:51:49;;;;;;;19.03;16.57;;;11.90;93.70;;;;;;5132152;28;20051;-66
2021/05/17 07:54:18;;;;;;;19.30;15.40;;;12.00;93.70;;;;;;5133408;27;20084;-66
2021/05/17 07:56:44;;;;;;;19.30;16.50;;;12.00;93.60;;;;;;5136093;27;20058;-66
2021/05/17 07:59:10;;;;;;;19.27;17.03;;;12.20;93.70;;;;;;5136446;27;20423;-66
2021/05/17 08:01:37;;;;;;;19.77;17.67;;;12.30;93.60;;;;;;5135276;27;20050;-66
2021/05/17 08:04:03;;;;;;;20.93;16.43;;;12.50;93.50;;;;;;5135668;27;20563;-66
2021/05/17 08:06:29;;;;;;;21.30;17.27;;;12.60;93.40;;;;;;5134820;27;20141;-67
2021/05/17 08:08:54;;;;;;;18.13;16.23;;;12.80;93.30;;;;;;5136249;27;20138;-65
2021/05/17 08:11:21;;;;;;;18.47;14.77;;;12.90;93.20;;;;;;5135845;27;20035;-65
2021/05/17 08:13:47;;;;;;;15.83;14.23;;;13.00;93.00;;;;;;5135492;27;20047;-66
2021/05/17 08:16:15;;;;;;;14.33;12.83;;;13.10;92.70;;;;;;5135675;27;20050;-66
2021/05/17 08:18:42;;;;;;;15.00;13.40;;;13.20;92.50;;;;;;5135588;27;20048;-66
2021/05/17 08:21:08;;;;;;;13.33;12.00;;;13.30;92.50;;;;;;5135241;27;20115;-65
2021/05/17 08:23:35;;;;;;;13.47;12.03;;;13.30;92.20;;;;;;5135337;27;20433;-65
2021/05/17 08:26:02;;;;;;;14.70;12.90;;;13.40;92.10;;;;;;5135102;27;20051;-65
2021/05/17 08:28:28;;;;;;;12.63;11.13;;;13.40;92.00;;;;;;5134400;27;20432;-66
2021/05/17 08:30:57;;;;;;;11.60;10.40;;;13.40;91.70;;;;;;5135181;27;20091;-66
2021/05/17 08:33:24;;;;;;;11.90;10.17;;;13.30;91.60;;;;;;5135154;27;20047;-65
2021/05/17 08:35:50;;;;;;;12.43;11.13;;;13.30;91.70;;;;;;5134673;27;20501;-66
2021/05/17 08:38:16;;;;;;;12.37;11.17;;;13.30;91.60;;;;;;5135532;27;20051;-66
2021/05/17 08:40:45;;;;;;;11.87;10.77;;;13.40;91.80;;;;;;5134927;27;20050;-66
2021/05/17 08:43:11;;;;;;;10.17;9.00;;;13.50;92.00;;;;;;5135079;27;20437;-66
2021/05/17 08:45:37;;;;;;;10.33;9.33;;;13.80;92.00;;;;;;5134983;27;20243;-67
2021/05/17 08:48:04;;;;;;;9.30;8.40;;;14.00;91.50;;;;;;5135111;27;20096;-66
2021/05/17 08:50:32;;;;;;;11.13;8.90;;;14.10;91.20;;;;;;5134509;27;20134;-66
2021/05/17 08:52:58;;;;;;;12.07;8.80;;;14.20;90.70;;;;;;5134726;27;20058;-66
2021/05/17 08:55:23;;;;;;;9.87;7.90;;;14.10;90.30;;;;;;5135083;27;20047;-66
2021/05/17 08:57:49;;;;;;;10.53;8.70;;;14.10;90.10;;;;;;5134185;27;20051;-66
2021/05/17 09:00:20;;;;;;;11.40;9.00;;;14.20;90.10;;;;;;5134657;27;20053;-66
2021/05/17 09:02:46;;;;;;;10.17;8.03;;;14.40;89.30;;;;;;5134291;27;20499;-65
2021/05/17 09:05:24;;;;;;;8.90;8.00;;;14.50;89.10;;;;;;5133821;27;20075;-65
2021/05/17 09:07:52;;;;;;;8.23;7.43;;;14.70;88.50;;;;;;5134467;27;20491;-66
2021/05/17 09:10:22;;;;;;;8.77;7.87;;;14.70;88.20;;;;;;5133912;27;20065;-66
2021/05/17 09:13:03;;;;;;;9.33;8.30;;;14.70;87.50;;;;;;5134755;27;20057;-65
2021/05/17 09:15:51;;;;;;;8.57;7.67;;;14.70;86.60;;;;;;5134293;27;20135;-66
2021/05/17 09:18:28;;;;;;;8.33;7.43;;;14.60;85.60;;;;;;5134001;27;20071;-66
2021/05/17 09:20:56;;;;;;;12.40;7.67;;;14.60;85.80;;;;;;5134326;27;20051;-66
2021/05/17 09:23:27;;;;;;;9.37;7.47;;;14.50;85.60;;;;;;5134438;27;20104;-66
2021/05/17 09:26:08;;;;;;;8.60;7.70;;;14.40;85.20;;;;;;5134156;27;20103;-66
2021/05/17 09:28:35;;;;;;;15.43;8.30;;;14.40;85.20;;;;;;5134149;27;20143;-66
2021/05/17 09:31:05;;;;;;;10.00;8.47;;;14.50;85.70;;;;;;5133751;27;20086;-66
2021/05/17 09:33:50;;;;;;;11.70;7.80;;;14.80;85.20;;;;;;5134123;27;20141;-66
2021/05/17 09:36:48;;;;;;;8.63;7.13;;;15.20;84.30;;;;;;5133967;27;20043;-66
2021/05/17 09:39:16;;;;;;;7.47;4.60;;;15.80;82.50;;;;;;5098195;27;20077;-66
2021/05/17 09:41:44;;;;;;;9.20;6.63;;;16.10;80.60;;;;;;5133199;27;20058;-66
2021/05/17 09:44:12;;;;;;;7.97;6.90;;;16.40;78.60;;;;;;5134024;27;20171;-66
2021/05/17 09:47:13;;;;;;;8.23;6.43;;;16.70;78.40;;;;;;5133863;27;20051;-66
2021/05/17 09:49:45;;;;;;;8.97;5.40;;;16.70;76.10;;;;;;5134527;27;20110;-66
2021/05/17 09:52:24;;;;;;;12.03;6.37;;;16.40;76.70;;;;;;5134012;27;20437;-66
2021/05/17 09:54:52;;;;;;;9.53;6.53;;;16.20;76.90;;;;;;5133978;27;20206;-67
2021/05/17 09:57:28;;;;;;;7.63;5.93;;;15.80;78.90;;;;;;5133783;27;20051;-66
2021/05/17 09:59:55;;;;;;;7.63;6.13;;;15.40;79.50;;;;;;5133511;27;20050;-66
2021/05/17 10:02:35;;;;;;;11.37;5.77;;;15.20;79.90;;;;;;5133749;27;20047;-66
2021/05/17 10:05:25;;;;;;;10.13;6.20;;;15.00;80.50;;;;;;5133366;27;20062;-66
2021/05/17 10:07:56;;;;;;;8.90;6.27;;;14.80;81.90;;;;;;5123531;27;20046;-67
2021/05/17 10:10:24;;;;;;;7.30;5.13;;;14.60;82.90;;;;;;5133404;27;20126;-66
2021/05/17 10:12:51;;;;;;;12.70;6.00;;;14.40;83.80;;;;;;5133356;27;20050;-66
2021/05/17 10:15:17;;;;;;;7.97;4.93;;;14.20;84.80;;;;;;5132890;27;20046;-65
2021/05/17 10:17:44;;;;;;;5.63;4.60;;;14.10;85.20;;;;;;5133110;27;20075;-65
2021/05/17 10:20:23;;;;;;;6.23;4.40;;;14.00;85.30;;;;;;5132994;27;20046;-65
2021/05/17 10:22:50;;;;;;;5.73;3.80;;;14.00;85.60;;;;;;5133611;27;20051;-66
2021/05/17 10:25:31;;;;;;;9.27;4.13;;;13.90;86.00;;;;;;5131490;27;20051;-66
2021/05/17 10:28:24;;;;;;;5.57;3.00;;;13.80;86.10;;;;;;5132487;27;20074;-66
2021/05/17 10:30:52;;;;;;;6.10;3.50;;;13.70;86.00;;;;;;5130129;27;20047;-66
2021/05/17 10:33:20;;;;;;;4.57;2.20;;;13.60;86.00;;;;;;5132475;27;20494;-66
2021/05/17 10:35:49;;;;;;;4.73;2.47;;;13.50;86.00;;;;;;5132046;27;20076;-67
2021/05/17 10:38:28;;;;;;;5.70;2.90;;;13.50;86.30;;;;;;5132389;27;20088;-67
2021/05/17 10:43:57;;;;;;;3.63;2.60;;;13.40;86.80;;;;;;5112383;27;20064;-66
2021/05/17 10:46:39;;;;;;;4.93;2.58;;;13.40;87.30;;;;;;5112358;28;20126;-66
2021/05/17 10:49:21;;;;;;;6.47;3.30;;;13.50;87.00;;;;;;5111896;28;20058;-66
2021/05/17 10:51:49;;;;;;;3.97;2.27;;;13.60;86.70;;;;;;5112092;28;20122;-65
2021/05/17 10:54:49;;;;;;;5.60;3.53;;;13.70;86.40;;;;;;5112112;28;20050;-65
2021/05/17 10:57:21;;;;;;;6.13;3.90;;;13.70;86.20;;;;;;5108340;28;20435;-65
2021/05/17 11:02:40;;;;;;;9.47;6.73;;;14.00;86.00;;;;;;5111335;28;19954;-65
2021/05/17 11:05:19;;;;;;;6.90;6.07;;;14.10;86.00;;;;;;5111862;28;20055;-65
2021/05/17 11:07:47;;;;;;;9.37;6.43;;;14.30;85.30;;;;;;5111649;28;20059;-66
2021/05/17 11:10:25;;;;;;;7.33;5.50;;;14.50;85.40;;;;;;5111550;28;20064;-66
2021/05/17 11:12:58;;;;;;;10.23;6.10;;;14.80;85.20;;;;;;5111656;27;20051;-66
2021/05/17 11:15:39;;;;;;;8.10;6.50;;;15.10;83.30;;;;;;5111700;28;20047;-66
2021/05/17 11:18:07;;;;;;;8.17;7.00;;;15.20;83.10;;;;;;5111405;28;20043;-66
2021/05/17 11:20:44;;;;;;;7.73;6.07;;;15.40;83.00;;;;;;5131518;27;20092;-66
2021/05/17 11:23:20;;;;;;;6.50;5.83;;;15.60;82.30;;;;;;5132679;27;20051;-67
2021/05/17 11:26:06;;;;;;;10.10;5.87;;;15.70;81.10;;;;;;5131849;27;20047;-67
2021/05/17 11:28:38;;;;;;;7.03;6.13;;;15.80;78.50;;;;;;5131765;27;20051;-66
2021/05/17 11:31:04;;;;;;;8.10;5.77;;;15.70;79.60;;;;;;5131722;27;20118;-67
2021/05/17 11:33:53;;;;;;;8.67;6.50;;;15.60;80.10;;;;;;5132291;27;20135;-67
2021/05/17 11:36:26;;;;;;;8.27;6.07;;;15.40;79.40;;;;;;5131942;27;20411;-67
2021/05/17 11:39:31;;;;;;;6.87;6.10;;;15.30;80.40;;;;;;5131707;28;20054;-67
2021/05/17 11:41:57;;;;;;;8.60;6.10;;;15.20;80.40;;;;;;5131880;28;20391;-66
2021/05/17 11:44:30;;;;;;;11.53;6.63;;;15.00;81.40;;;;;;5131703;28;20044;-66
2021/05/17 11:47:18;;;;;;;7.33;4.90;;;14.90;81.80;;;;;;5131833;27;20449;-66
2021/05/17 11:49:45;;;;;;;4.73;4.10;;;14.80;81.80;;;;;;5131670;27;20407;-67
2021/05/17 11:52:14;;;;;;;5.33;3.60;;;14.70;81.90;;;;;;5131586;28;20071;-67
2021/05/17 11:54:48;;;;;;;3.63;2.63;;;14.60;81.50;;;;;;5132417;28;20051;-67
2021/05/17 11:57:14;;;;;;;5.53;3.10;;;14.50;81.30;;;;;;5131409;28;20039;-67
2021/05/17 11:59:40;;;;;;;3.73;2.50;;;14.40;81.50;;;;;;5131392;28;20048;-67
2021/05/17 12:02:07;;;;;;;5.97;3.57;;;14.30;81.60;;;;;;5131596;27;20051;-67
2021/05/17 12:04:37;;;;;;;5.60;4.03;;;14.30;81.80;;;;;;5131512;28;20388;-67
2021/05/17 12:07:11;;;;;;;5.07;3.70;;;14.20;82.20;;;;;;5131765;28;20407;-67
2021/05/17 12:09:54;;;;;;;7.07;4.80;;;14.20;82.60;;;;;;5131419;28;20373;-68
2021/05/17 12:12:25;;;;;;;7.07;4.70;;;14.10;82.60;;;;;;5131757;28;20051;-67
2021/05/17 12:14:56;;;;;;;5.40;3.78;;;14.00;83.00;;;;;;5130162;28;20047;-67
2021/05/17 12:17:35;;;;;;;6.23;3.30;;;13.90;83.50;;;;;;5131432;28;20449;-67
2021/05/17 12:20:07;;;;;;;5.93;3.40;;;13.80;83.80;;;;;;5131395;28;20309;-67
2021/05/17 12:22:39;;;;;;;5.97;4.17;;;13.80;84.00;;;;;;5131703;28;20086;-67
2021/05/17 12:25:16;;;;;;;7.03;4.80;;;13.70;84.70;;;;;;5131369;28;20495;-68
2021/05/17 12:27:44;;;;;;;8.33;5.37;;;13.70;85.90;;;;;;5131368;28;20449;-68
2021/05/17 12:30:23;;;;;;;7.73;5.60;;;13.70;86.20;;;;;;5131613;28;20472;-68
2021/05/17 12:32:52;;;;;;;6.13;4.97;;;13.70;86.90;;;;;;5131323;28;20571;-67
2021/05/17 12:35:20;;;;;;;6.83;4.63;;;13.70;87.30;;;;;;5130989;28;20047;-67
2021/05/17 12:37:49;;;;;;;5.77;4.87;;;13.70;87.70;;;;;;5131524;28;20043;-67
2021/05/17 12:40:27;;;;;;;7.20;5.37;;;13.60;87.90;;;;;;5131919;27;20062;-67
2021/05/17 12:43:07;;;;;;;6.03;4.50;;;13.60;88.10;;;;;;5134613;27;20075;-67
2021/05/17 12:45:42;;;;;;;5.50;4.37;;;13.50;88.40;;;;;;5135123;27;20051;-67
2021/05/17 12:48:40;;;;;;;7.07;3.83;;;13.60;88.90;;;;;;5135248;27;20050;-66
2021/05/17 12:51:20;;;;;;;6.37;2.50;;;13.60;88.80;;;;;;5132144;27;20054;-67
2021/05/17 12:53:48;;;;;;;3.17;2.30;;;13.60;88.70;;;;;;5135223;27;20043;-67
2021/05/17 12:56:35;;;;;;;3.97;2.20;;;13.60;88.80;;;;;;5134807;27;20047;-67
2021/05/17 12:59:13;;;;;;;2.30;1.40;;;13.80;88.40;;;;;;5134905;27;20058;-67
2021/05/17 13:01:40;;;;;;;1.70;1.60;;;14.00;87.80;;;;;;5134824;27;20390;-67
2021/05/17 13:04:09;;;;;;;2.67;1.40;;;14.20;86.90;;;;;;5134224;27;20039;-67
2021/05/17 13:06:35;;;;;;;3.10;1.60;;;14.40;85.80;;;;;;5134597;27;20468;-67
2021/05/17 13:09:07;;;;;;;3.20;1.57;;;14.60;84.60;;;;;;5134432;27;20047;-67
2021/05/17 13:11:38;;;;;;;1.98;1.27;;;14.60;83.30;;;;;;5134595;27;20052;-67
2021/05/17 13:14:13;;;;;;;2.53;1.50;;;14.60;82.80;;;;;;5134162;27;20070;-67
2021/05/17 13:16:41;;;;;;;2.80;1.60;;;14.60;82.80;;;;;;5134057;27;20055;-67
2021/05/17 13:19:15;;;;;;;2.20;1.50;;;14.60;82.70;;;;;;5134724;27;20058;-66
2021/05/17 13:30:34;;;;;;;14.03;11.70;;;14.40;83.20;;;;;;5133877;27;20080;-66